Time;durP1;ratioP1;P1;durP2;ratioP2;P2;SDS_P1;SDS_P2;PMS_P1;PMS_P2;Temp;Humidity;BMP_temperature;BMP_pressure;BME280_temperature;BME280_humidity;BME280_pressure;Samples;Min_cycle;Max_cycle;Signal;HPM_P1;HPM_P2
2023/06/04 00:01:33;;;;;;;21.73;7.72;;;;;;;21.01;83.75;100858.41;5035449;28;20064;-90
2023/06/04 00:03:58;;;;;;;25.60;8.98;;;;;;;21.00;83.66;100857.56;5048364;28;20034;-89
2023/06/04 00:06:23;;;;;;;20.58;6.70;;;;;;;20.94;83.32;100841.91;5044484;28;20037;-88
2023/06/04 00:08:49;;;;;;;17.67;7.75;;;;;;;21.02;83.50;100855.50;5031291;28;20046;-87
2023/06/04 00:11:14;;;;;;;18.42;7.57;;;;;;;21.09;83.16;100855.63;5019615;28;20120;-85
2023/06/04 00:13:40;;;;;;;20.52;7.75;;;;;;;21.00;83.14;100852.09;5032730;28;20065;-87
2023/06/04 00:16:06;;;;;;;14.80;7.57;;;;;;;21.03;83.53;100859.06;5037190;28;20417;-86
2023/06/04 00:18:32;;;;;;;21.17;7.78;;;;;;;20.94;83.36;100844.66;5039587;28;20037;-86
2023/06/04 00:20:57;;;;;;;20.80;8.00;;;;;;;20.88;83.39;100825.41;5037810;28;20044;-87
2023/06/04 00:23:22;;;;;;;13.02;7.05;;;;;;;20.89;83.17;100835.28;5020980;28;20046;-87
2023/06/04 00:25:48;;;;;;;14.77;7.55;;;;;;;20.90;83.66;100847.91;5024601;28;20128;-86
2023/06/04 00:28:13;;;;;;;18.27;8.45;;;;;;;20.89;84.04;100859.88;5017946;28;20033;-86
2023/06/04 00:30:39;;;;;;;27.23;8.30;;;;;;;20.78;83.58;100857.63;5018491;28;20030;-87
2023/06/04 00:33:05;;;;;;;15.77;7.28;;;;;;;20.80;84.11;100853.66;5017571;28;20030;-86
2023/06/04 00:35:32;;;;;;;14.98;7.85;;;;;;;20.83;84.20;100864.22;5018878;28;20030;-87
2023/06/04 00:37:58;;;;;;;11.98;7.35;;;;;;;20.78;84.96;100858.47;5018867;28;20057;-87
2023/06/04 00:40:23;;;;;;;16.52;7.50;;;;;;;20.73;85.13;100854.59;5018674;28;20030;-87
2023/06/04 00:42:49;;;;;;;16.65;8.00;;;;;;;20.74;84.33;100862.59;5020146;28;20478;-87
2023/06/04 00:45:18;;;;;;;14.90;7.60;;;;;;;20.53;85.00;100838.69;5019062;28;20455;-87
2023/06/04 00:47:45;;;;;;;16.17;7.90;;;;;;;20.64;85.25;100862.84;5021481;28;20029;-86
2023/06/04 00:50:11;;;;;;;13.65;7.40;;;;;;;20.63;85.29;100866.63;5017158;28;20033;-87
2023/06/04 00:52:37;;;;;;;17.05;6.88;;;;;;;20.46;84.55;100832.25;5020378;28;20034;-86
2023/06/04 00:55:06;;;;;;;18.17;8.10;;;;;;;20.55;85.17;100874.88;5018647;28;20114;-86
2023/06/04 00:57:31;;;;;;;13.18;6.60;;;;;;;20.49;85.15;100863.81;5018493;28;20026;-87
2023/06/04 00:59:57;;;;;;;22.27;8.40;;;;;;;20.52;85.22;100880.72;5027327;28;20032;-86
2023/06/04 01:02:25;;;;;;;17.38;7.63;;;;;;;20.36;84.72;100858.16;5026825;28;20057;-87
2023/06/04 01:05:14;;;;;;;15.70;7.45;;;;;;;20.47;84.22;100877.69;5017286;28;20026;-87
2023/06/04 01:07:45;;;;;;;19.67;7.57;;;;;;;20.34;83.89;100860.19;5018410;28;20042;-85
2023/06/04 01:10:11;;;;;;;10.75;6.53;;;;;;;20.47;83.55;100876.84;5027283;28;20025;-89
2023/06/04 01:12:40;;;;;;;13.23;6.10;;;;;;;20.36;82.66;100848.06;5022273;28;20117;-87
2023/06/04 01:15:06;;;;;;;24.00;7.82;;;;;;;20.42;82.69;100871.94;5022800;28;20029;-86
2023/06/04 01:17:38;;;;;;;20.42;7.20;;;;;;;20.33;82.12;100848.44;5018334;28;20040;-87
2023/06/04 01:20:20;;;;;;;24.63;7.93;;;;;;;20.50;82.02;100882.78;5016394;28;20022;-84
2023/06/04 01:22:54;;;;;;;13.15;6.65;;;;;;;20.48;81.70;100879.41;5030214;28;20085;-87
2023/06/04 01:25:31;;;;;;;20.52;6.85;;;;;;;20.48;81.17;100889.47;5017872;28;20022;-86
2023/06/04 01:27:58;;;;;;;16.13;6.38;;;;;;;20.29;80.20;100858.03;5011911;28;20503;-88
2023/06/04 01:30:28;;;;;;;9.38;5.97;;;;;;;20.45;79.74;100889.84;5011911;28;20029;-87
2023/06/04 01:32:57;;;;;;;24.48;6.45;;;;;;;20.30;79.71;100878.84;5012243;28;20044;-87
2023/06/04 01:35:23;;;;;;;15.00;6.63;;;;;;;20.29;79.41;100901.72;5011145;28;20106;-87
2023/06/04 01:37:49;;;;;;;21.27;6.07;;;;;;;20.27;80.03;100903.81;5009928;28;20120;-87
2023/06/04 01:40:15;;;;;;;17.85;6.53;;;;;;;20.18;79.86;100893.06;5011215;28;20033;-87
2023/06/04 01:42:44;;;;;;;16.23;7.07;;;;;;;20.21;79.77;100904.50;5012444;28;20383;-87
2023/06/04 01:45:10;;;;;;;11.68;5.63;;;;;;;20.05;79.26;100891.78;5016682;28;20388;-88
2023/06/04 01:47:37;;;;;;;14.45;6.05;;;;;;;20.08;79.47;100894.16;5024070;28;20031;-91
2023/06/04 01:50:05;;;;;;;12.68;6.43;;;;;;;19.86;78.66;100861.34;5017310;28;20026;-93
2023/06/04 01:52:31;;;;;;;14.35;5.32;;;;;;;19.87;78.59;100863.91;5014752;28;20036;-94
2023/06/04 01:54:57;;;;;;;12.68;6.38;;;;;;;20.00;78.12;100902.38;5018904;28;20049;-95
2023/06/04 01:57:23;;;;;;;14.43;6.35;;;;;;;19.84;78.32;100880.63;5035148;28;20060;-95
2023/06/04 01:59:52;;;;;;;15.85;5.63;;;;;;;19.81;78.19;100881.00;5051510;28;20022;-94
2023/06/04 02:02:18;;;;;;;22.98;7.25;;;;;;;19.83;77.96;100883.53;5018523;28;20046;-94
2023/06/04 02:04:44;;;;;;;25.23;6.05;;;;;;;19.82;77.77;100888.13;5032427;28;20054;-94
2023/06/04 02:07:13;;;;;;;11.55;5.68;;;;;;;19.96;77.08;100908.38;5017193;28;20044;-93
2023/06/04 02:09:40;;;;;;;11.18;5.63;;;;;;;20.00;77.01;100918.75;5015248;28;20135;-94
2023/06/04 02:12:27;;;;;;;16.25;5.28;;;;;;;19.71;76.65;100887.69;5037992;28;20030;-91
2023/06/04 02:14:53;;;;;;;26.85;6.50;;;;;;;19.76;76.21;100888.00;5044407;28;20052;-91
2023/06/04 02:17:18;;;;;;;16.23;5.78;;;;;;;19.83;76.21;100906.22;5014892;28;20141;-92
2023/06/04 02:19:49;;;;;;;14.45;5.25;;;;;;;19.90;76.53;100933.69;5014388;28;20098;-94
2023/06/04 02:22:30;;;;;;;10.02;5.53;;;;;;;19.55;76.51;100881.28;4997947;28;20098;-95
2023/06/04 02:24:56;;;;;;;16.48;5.35;;;;;;;19.88;76.36;100949.34;4987127;28;20677;-93
2023/06/04 02:27:24;;;;;;;12.23;4.65;;;;;;;19.70;76.45;100927.78;4982724;28;20158;-95
2023/06/04 02:29:50;;;;;;;14.05;5.50;;;;;;;19.69;76.42;100934.28;4980687;28;20038;-96
2023/06/04 02:32:16;;;;;;;13.63;4.47;;;;;;;19.45;76.27;100896.13;4997333;28;20065;-96
2023/06/04 02:35:01;;;;;;;13.65;4.97;;;;;;;19.58;76.10;100914.69;4984663;28;20042;-94
2023/06/04 02:37:27;;;;;;;16.10;5.30;;;;;;;19.49;76.10;100914.72;4956600;28;20023;-95
2023/06/04 02:39:53;;;;;;;27.58;5.07;;;;;;;19.59;76.15;100946.41;4956975;29;20062;-95
2023/06/04 02:42:18;;;;;;;13.00;4.40;;;;;;;19.34;76.46;100910.97;4941465;29;20086;-95
2023/06/04 02:44:44;;;;;;;9.25;4.43;;;;;;;19.62;76.40;100970.63;4920377;29;20106;-95
2023/06/04 02:47:10;;;;;;;11.07;4.60;;;;;;;19.26;76.35;100905.56;4927094;29;20515;-95
2023/06/04 02:49:35;;;;;;;12.57;4.47;;;;;;;19.28;76.42;100911.69;4939065;28;20094;-94
2023/06/04 02:52:01;;;;;;;17.23;5.07;;;;;;;19.36;75.75;100919.81;4939850;28;20055;-96
2023/06/04 02:54:27;;;;;;;10.48;4.47;;;;;;;19.34;75.51;100924.63;4940262;28;20079;-96
2023/06/04 02:56:53;;;;;;;13.35;5.30;;;;;;;19.35;75.56;100933.66;4939735;28;20036;-95
2023/06/04 02:59:19;;;;;;;14.90;5.20;;;;;;;19.54;75.06;100955.97;4928227;28;20102;-95
2023/06/04 03:01:44;;;;;;;12.43;5.10;;;;;;;19.50;75.45;100960.09;4937470;29;20051;-95
2023/06/04 03:04:14;;;;;;;12.30;4.85;;;;;;;19.58;75.30;100966.53;4953664;28;20043;-95
2023/06/04 03:06:40;;;;;;;11.10;5.50;;;;;;;19.53;75.02;100962.47;4974572;28;20031;-95
2023/06/04 03:09:07;;;;;;;11.43;5.00;;;;;;;19.53;74.69;100965.19;4976347;28;20658;-96
2023/06/04 03:11:32;;;;;;;12.43;4.53;;;;;;;19.45;74.30;100954.28;4977120;28;20035;-96
2023/06/04 03:13:58;;;;;;;13.63;4.93;;;;;;;19.51;74.59;100972.69;4960054;28;20053;-95
2023/06/04 03:16:23;;;;;;;13.43;4.65;;;;;;;19.50;74.22;100962.81;4960282;28;20074;-95
2023/06/04 03:18:49;;;;;;;16.20;5.57;;;;;;;19.41;74.36;100966.59;4959696;28;20292;-95
2023/06/04 03:21:16;;;;;;;18.48;5.07;;;;;;;19.48;74.65;100973.03;4981266;28;20037;-96
2023/06/04 03:23:43;;;;;;;12.32;5.22;;;;;;;19.65;74.49;101000.28;5015012;28;20088;-96
2023/06/04 03:26:09;;;;;;;11.05;4.50;;;;;;;19.36;74.34;100958.00;4999231;28;20030;-94
2023/06/04 03:28:35;;;;;;;11.93;4.72;;;;;;;19.30;74.24;100942.34;4998798;28;20048;-94
2023/06/04 03:31:01;;;;;;;14.35;4.95;;;;;;;19.58;74.67;100996.53;5011477;28;20069;-96
2023/06/04 03:33:27;;;;;;;15.13;5.85;;;;;;;19.28;74.66;100943.56;5035282;28;20143;-94
2023/06/04 03:35:52;;;;;;;16.98;6.97;;;;;;;19.27;74.61;100948.16;5036281;28;20064;-94
2023/06/04 03:38:18;;;;;;;15.82;8.10;;;;;;;19.38;74.57;100977.81;5043074;28;20064;-92
2023/06/04 03:40:45;;;;;;;14.30;5.32;;;;;;;19.28;74.47;100955.31;5036799;28;20037;-93
2023/06/04 03:43:11;;;;;;;18.25;5.97;;;;;;;19.44;74.33;100979.03;5038708;28;20106;-93
2023/06/04 03:45:36;;;;;;;44.40;8.93;;;;;;;19.57;74.65;101003.88;5049281;28;20057;-85
2023/06/04 03:48:02;;;;;;;22.15;5.80;;;;;;;19.47;74.34;101003.22;5037379;28;20813;-88
2023/06/04 03:50:27;;;;;;;21.05;8.00;;;;;;;19.64;74.01;101020.41;5049751;28;20032;-83
2023/06/04 03:52:53;;;;;;;16.40;6.22;;;;;;;19.67;73.58;101014.59;5042800;28;20029;-84
2023/06/04 03:55:18;;;;;;;12.32;5.28;;;;;;;19.62;73.14;101017.88;5044471;28;20065;-96
2023/06/04 03:57:44;;;;;;;19.33;6.32;;;;;;;19.68;73.21;101016.31;5033861;28;20037;-86
2023/06/04 04:00:12;;;;;;;12.40;5.38;;;;;;;19.61;72.96;101016.16;5034274;28;20099;-89
2023/06/04 04:02:39;;;;;;;19.35;5.93;;;;;;;19.48;73.05;100992.13;5034854;28;20079;-89
2023/06/04 04:05:05;;;;;;;15.80;5.28;;;;;;;19.42;73.04;100973.72;5020577;28;20113;-88
2023/06/04 04:07:31;;;;;;;8.25;5.40;;;;;;;19.51;73.37;100996.38;5016030;28;20080;-87
2023/06/04 04:09:56;;;;;;;7.72;4.97;;;;;;;19.43;73.32;101002.72;5017839;28;20036;-88
2023/06/04 04:12:22;;;;;;;23.45;6.28;;;;;;;19.45;73.08;100989.75;5027061;28;20056;-87
2023/06/04 04:14:48;;;;;;;11.85;5.55;;;;;;;19.60;72.86;100999.97;5024913;28;20179;-87
2023/06/04 04:17:14;;;;;;;12.43;5.53;;;;;;;19.80;72.40;101045.81;5013179;28;20609;-87
2023/06/04 04:19:40;;;;;;;14.20;5.43;;;;;;;19.73;72.79;101049.38;5014829;28;20030;-87
2023/06/04 04:22:06;;;;;;;11.05;5.50;;;;;;;19.60;73.15;101008.16;5014117;28;20036;-90
2023/06/04 04:24:34;;;;;;;14.00;5.25;;;;;;;19.73;72.52;101022.09;5013501;28;20030;-89
2023/06/04 04:26:59;;;;;;;13.65;5.85;;;;;;;19.77;72.73;101026.19;5017847;28;20040;-91
2023/06/04 04:29:27;;;;;;;12.77;5.45;;;;;;;19.72;72.35;101007.63;5019955;28;20507;-89
2023/06/04 04:31:56;;;;;;;20.90;5.47;;;;;;;19.69;72.22;101005.22;5017437;28;20037;-90
2023/06/04 04:34:24;;;;;;;12.07;6.50;;;;;;;19.72;71.67;101023.13;5016443;28;20053;-90
2023/06/04 04:36:52;;;;;;;23.92;11.05;;;;;;;19.85;71.19;101027.00;5014483;28;20061;-90
2023/06/04 04:39:22;;;;;;;15.90;6.22;;;;;;;19.99;70.83;101036.38;5013881;28;20146;-90
2023/06/04 04:41:48;;;;;;;8.75;5.28;;;;;;;19.91;70.91;101030.91;5014909;28;20034;-88
2023/06/04 04:44:16;;;;;;;13.68;5.82;;;;;;;19.82;70.29;101012.84;5023107;28;20025;-88
2023/06/04 04:46:42;;;;;;;17.05;6.40;;;;;;;19.75;69.37;100985.44;5031663;28;20014;-90
2023/06/04 04:49:08;;;;;;;15.38;6.50;;;;;;;19.77;69.12;100999.75;5036746;28;20053;-89
2023/06/04 04:51:35;;;;;;;31.67;5.57;;;;;;;19.90;68.31;101001.94;5026938;28;20099;-87
2023/06/04 04:54:00;;;;;;;12.82;4.22;;;;;;;19.95;67.71;101005.81;5014500;28;20122;-89
2023/06/04 04:56:26;;;;;;;16.17;4.22;;;;;;;19.84;67.86;100994.44;5028115;28;20493;-90
2023/06/04 04:58:53;;;;;;;19.73;5.50;;;;;;;20.13;67.81;101016.50;5013506;28;20022;-90
2023/06/04 05:01:20;;;;;;;13.88;4.60;;;;;;;19.98;67.62;100999.16;5012792;28;20038;-89
2023/06/04 05:03:46;;;;;;;27.13;5.00;;;;;;;20.23;67.34;101030.81;5012266;28;20038;-90
2023/06/04 05:06:11;;;;;;;8.75;3.72;;;;;;;19.94;66.92;100990.47;5013359;28;20041;-90
2023/06/04 05:08:37;;;;;;;23.77;5.28;;;;;;;20.29;67.24;101032.84;5010939;28;20076;-89
2023/06/04 05:11:03;;;;;;;18.50;4.25;;;;;;;20.55;67.32;101055.25;5010707;28;20433;-89
2023/06/04 05:13:29;;;;;;;25.92;4.80;;;;;;;20.62;65.80;101049.94;5011336;28;20117;-90
2023/06/04 05:15:55;;;;;;;12.30;4.50;;;;;;;20.29;64.90;100997.34;5011569;28;20053;-90
2023/06/04 05:18:20;;;;;;;30.20;5.95;;;;;;;20.38;65.04;101007.19;5010896;28;20065;-87
2023/06/04 05:20:49;;;;;;;20.15;4.82;;;;;;;20.62;65.33;101034.38;5010659;28;20034;-88
2023/06/04 05:23:14;;;;;;;19.48;3.95;;;;;;;20.60;65.38;101041.94;5010911;28;20516;-88
2023/06/04 05:25:43;;;;;;;13.63;4.43;;;;;;;20.70;65.54;101049.06;5010697;28;20033;-90
2023/06/04 05:28:09;;;;;;;17.38;3.72;;;;;;;20.71;65.03;101031.59;5010388;28;20087;-89
2023/06/04 05:30:34;;;;;;;19.55;4.13;;;;;;;20.72;64.19;101027.84;5011422;28;20116;-90
2023/06/04 05:33:00;;;;;;;20.05;4.45;;;;;;;20.69;63.18;101023.59;4995155;28;20034;-87
2023/06/04 05:35:25;;;;;;;34.30;6.93;;;;;;;20.83;63.27;101041.06;5014140;28;20046;-87
2023/06/04 05:37:54;;;;;;;19.45;3.80;;;;;;;20.88;63.00;101038.69;5015451;28;20041;-90
2023/06/04 05:40:22;;;;;;;10.73;3.17;;;;;;;21.11;62.33;101080.56;5028566;28;20085;-86
2023/06/04 05:42:48;;;;;;;16.35;3.13;;;;;;;20.81;62.20;101021.28;5033184;28;20038;-87
2023/06/04 05:45:14;;;;;;;16.90;6.32;;;;;;;20.83;61.66;101014.59;5036586;28;20089;-89
2023/06/04 05:47:41;;;;;;;21.85;4.10;;;;;;;20.98;61.66;101037.38;5013408;28;20065;-88
2023/06/04 05:50:07;;;;;;;10.68;3.28;;;;;;;21.13;61.26;101030.13;5009102;28;20038;-90
2023/06/04 05:52:34;;;;;;;8.43;3.28;;;;;;;21.24;60.62;101038.94;5006486;28;20034;-88
2023/06/04 05:54:59;;;;;;;19.20;4.60;;;;;;;21.39;59.83;101039.81;4975052;28;20379;-89
2023/06/04 05:57:26;;;;;;;31.17;4.13;;;;;;;21.76;59.02;101085.50;4991418;28;20088;-90
2023/06/04 05:59:51;;;;;;;17.83;4.15;;;;;;;21.76;57.58;101045.28;4974522;28;20026;-90
2023/06/04 06:02:17;;;;;;;12.57;3.25;;;;;;;21.91;56.96;101064.50;4974607;28;20133;-90
2023/06/04 06:04:43;;;;;;;9.73;4.15;;;;;;;21.68;57.12;101038.00;4990314;28;20034;-87
2023/06/04 06:07:08;;;;;;;15.60;3.40;;;;;;;21.82;57.02;101060.09;4974139;28;20161;-88
2023/06/04 06:09:35;;;;;;;5.45;3.08;;;;;;;21.80;56.52;101053.97;4990597;28;20070;-88
2023/06/04 06:12:01;;;;;;;11.23;2.45;;;;;;;21.78;55.73;101032.25;4992994;28;20157;-87
2023/06/04 06:14:27;;;;;;;6.93;2.45;;;;;;;21.74;54.47;101041.03;4999812;28;20049;-85
2023/06/04 06:16:53;;;;;;;10.85;3.25;;;;;;;21.60;53.27;101051.78;4998939;28;20069;-88
2023/06/04 06:19:19;;;;;;;12.93;2.85;;;;;;;21.92;54.45;101072.53;5009745;28;20046;-88
2023/06/04 06:21:45;;;;;;;12.07;3.70;;;;;;;21.81;53.34;101070.22;5015820;28;20018;-88
2023/06/04 06:24:11;;;;;;;22.77;3.30;;;;;;;21.89;54.01;101066.59;5012977;28;20406;-89
2023/06/04 06:26:37;;;;;;;17.20;3.97;;;;;;;22.18;53.39;101093.97;5012378;28;20029;-89
2023/06/04 06:29:02;;;;;;;9.95;2.78;;;;;;;21.97;53.67;101070.06;5012977;28;20025;-87
2023/06/04 06:31:28;;;;;;;16.83;3.40;;;;;;;22.23;54.23;101094.28;5011683;28;20103;-88
2023/06/04 06:33:54;;;;;;;22.13;3.15;;;;;;;22.11;53.53;101050.03;5013000;28;20030;-88
2023/06/04 06:36:20;;;;;;;22.92;4.32;;;;;;;22.20;53.19;101046.16;5029085;28;20018;-88
2023/06/04 06:38:46;;;;;;;26.13;3.72;;;;;;;22.34;53.41;101066.38;5034803;28;20082;-87
2023/06/04 06:41:12;;;;;;;13.57;3.40;;;;;;;22.43;53.17;101091.81;5037512;28;20026;-92
2023/06/04 06:43:38;;;;;;;7.35;3.08;;;;;;;22.30;53.06;101062.31;5037102;28;20014;-90
2023/06/04 06:46:04;;;;;;;5.68;3.05;;;;;;;22.35;53.40;101078.22;5019404;28;20458;-89
2023/06/04 06:48:29;;;;;;;14.15;3.40;;;;;;;22.39;54.14;101094.06;5017559;28;20026;-91
2023/06/04 06:50:55;;;;;;;18.10;3.03;;;;;;;22.17;54.64;101062.97;5016035;28;20034;-90
2023/06/04 06:53:21;;;;;;;9.75;3.85;;;;;;;22.46;54.04;101064.00;5016676;28;20505;-89
2023/06/04 06:55:47;;;;;;;8.00;3.50;;;;;;;22.42;53.88;101047.09;5017104;28;20128;-89
2023/06/04 06:58:13;;;;;;;15.25;3.95;;;;;;;22.64;53.61;101067.19;5015340;28;20505;-88
2023/06/04 07:00:39;;;;;;;16.88;3.50;;;;;;;22.67;53.57;101089.63;5016719;28;20025;-87
2023/06/04 07:03:04;;;;;;;14.32;3.42;;;;;;;22.69;53.15;101065.59;5015521;28;20018;-81
2023/06/04 07:05:30;;;;;;;15.18;3.78;;;;;;;23.15;52.94;101103.66;5012426;28;20042;-85
2023/06/04 07:07:57;;;;;;;11.77;2.88;;;;;;;23.19;52.27;101105.84;5011254;28;20518;-81
2023/06/04 07:10:24;;;;;;;25.70;4.32;;;;;;;23.29;51.27;101094.53;5017098;28;20037;-88
2023/06/04 07:12:50;;;;;;;14.98;3.70;;;;;;;23.35;51.58;101082.78;5017748;28;20041;-88
2023/06/04 07:15:15;;;;;;;21.75;3.75;;;;;;;23.61;51.82;101110.50;5015981;28;20021;-86
2023/06/04 07:17:41;;;;;;;12.45;3.13;;;;;;;23.42;52.07;101089.22;5017166;28;20041;-87
2023/06/04 07:20:08;;;;;;;22.02;5.10;;;;;;;23.43;51.87;101095.53;5015113;28;20026;-82
2023/06/04 07:22:34;;;;;;;16.73;4.30;;;;;;;23.51;52.13;101109.16;5015932;28;20034;-90
2023/06/04 07:25:00;;;;;;;19.83;4.00;;;;;;;23.63;52.40;101097.44;5017100;28;20029;-91
2023/06/04 07:27:26;;;;;;;13.68;3.47;;;;;;;23.66;51.77;101082.44;5014979;28;20473;-86
2023/06/04 07:29:52;;;;;;;17.08;5.53;;;;;;;23.78;51.84;101081.72;5015749;28;20232;-85
2023/06/04 07:32:17;;;;;;;31.33;8.05;;;;;;;23.69;50.58;101090.28;5020396;28;20049;-89
2023/06/04 07:34:43;;;;;;;23.75;8.02;;;;;;;23.85;50.55;101109.25;5019512;28;20076;-91
2023/06/04 07:37:09;;;;;;;24.48;8.98;;;;;;;23.85;50.59;101112.00;5034599;28;20056;-90
2023/06/04 07:39:35;;;;;;;14.55;5.47;;;;;;;24.07;50.65;101110.00;5027420;28;20033;-80
2023/06/04 07:42:00;;;;;;;29.50;8.88;;;;;;;24.15;50.42;101105.25;5014153;28;20068;-85
2023/06/04 07:44:26;;;;;;;29.45;5.53;;;;;;;24.24;50.15;101089.44;5010822;28;20120;-89
2023/06/04 07:46:51;;;;;;;34.22;7.07;;;;;;;24.35;49.87;101102.63;5014522;28;20038;-92
2023/06/04 07:49:17;;;;;;;33.92;8.02;;;;;;;24.28;49.77;101102.56;5011701;28;20029;-85
2023/06/04 07:51:42;;;;;;;12.93;6.82;;;;;;;24.21;49.44;101117.34;5007521;28;20030;-87
2023/06/04 07:54:08;;;;;;;19.67;7.82;;;;;;;24.12;49.19;101124.06;5009115;28;20393;-83
2023/06/04 07:56:33;;;;;;;25.02;7.22;;;;;;;24.17;49.29;101118.78;5011527;28;20249;-81
2023/06/04 07:58:59;;;;;;;14.15;4.38;;;;;;;23.98;48.05;101105.72;5012910;28;20478;-85
2023/06/04 08:01:24;;;;;;;18.50;6.13;;;;;;;23.90;47.79;101119.63;5009541;28;20115;-84
2023/06/04 08:03:50;;;;;;;29.27;7.93;;;;;;;23.74;48.40;101087.78;5011622;28;20037;-81
2023/06/04 08:06:16;;;;;;;14.70;3.50;;;;;;;23.66;47.82;101079.72;5012339;28;20029;-83
2023/06/04 08:08:45;;;;;;;31.40;10.95;;;;;;;24.13;47.80;101125.72;5012222;28;20058;-85
2023/06/04 08:11:15;;;;;;;24.15;4.70;;;;;;;24.22;46.67;101133.63;5011954;28;20025;-87
2023/06/04 08:13:41;;;;;;;27.77;7.65;;;;;;;24.30;47.32;101138.97;5011260;28;20041;-79
2023/06/04 08:16:07;;;;;;;16.92;4.97;;;;;;;24.31;47.14;101128.84;5010330;28;20042;-84
2023/06/04 08:18:33;;;;;;;7.13;3.45;;;;;;;24.05;47.58;101120.38;5010650;28;20045;-78
2023/06/04 08:20:58;;;;;;;17.40;6.85;;;;;;;24.13;47.27;101133.97;5010197;28;20029;-80
2023/06/04 08:23:23;;;;;;;23.23;7.95;;;;;;;24.20;45.99;101132.13;5010374;28;20030;-85
2023/06/04 08:25:49;;;;;;;12.38;4.32;;;;;;;;;;5011935;28;20421;-90
2023/06/04 08:28:15;;;;;;;17.70;5.73;;;;;;;24.38;46.51;101137.97;5022984;28;20025;-85
2023/06/04 08:30:42;;;;;;;15.95;6.03;;;;;;;24.47;46.90;101127.63;5009260;28;20294;-84
2023/06/04 08:33:07;;;;;;;18.10;6.60;;;;;;;24.55;47.03;101136.59;5023389;28;20025;-82
2023/06/04 08:35:33;;;;;;;34.08;14.25;;;;;;;24.71;46.92;101147.22;5035430;28;20038;-88
2023/06/04 08:37:59;;;;;;;28.98;8.07;;;;;;;24.80;46.87;101148.75;5024880;28;20038;-91
2023/06/04 08:40:25;;;;;;;46.03;11.15;;;;;;;24.76;46.39;101130.13;5015048;28;20025;-88
2023/06/04 08:42:52;;;;;;;14.27;5.40;;;;;;;24.95;45.36;101147.81;5021523;28;20034;-84
2023/06/04 08:45:20;;;;;;;28.38;5.70;;;;;;;24.88;45.59;101136.78;5022296;28;20044;-85
2023/06/04 08:47:50;;;;;;;16.50;4.10;;;;;;;24.98;45.86;101145.50;5012859;28;20042;-84
2023/06/04 08:50:24;;;;;;;65.72;5.40;;;;;;;25.05;45.65;101123.47;5019733;28;20490;-87
2023/06/04 08:52:54;;;;;;;17.88;4.85;;;;;;;25.11;46.02;101129.00;5014327;28;20030;-89
2023/06/04 08:55:21;;;;;;;8.95;4.15;;;;;;;25.21;45.48;101153.41;5012407;28;20366;-88
2023/06/04 08:57:49;;;;;;;28.63;5.57;;;;;;;25.00;44.86;101132.38;5012232;28;20026;-89
2023/06/04 09:00:15;;;;;;;18.08;4.78;;;;;;;25.06;45.06;101141.69;5010631;28;20061;-83
2023/06/04 09:02:41;;;;;;;16.40;4.40;;;;;;;25.07;45.10;101136.00;5010150;28;20022;-85
2023/06/04 09:05:10;;;;;;;35.35;12.77;;;;;;;24.95;44.96;101142.31;5011163;28;20041;-86
2023/06/04 09:07:41;;;;;;;14.07;4.70;;;;;;;24.89;44.66;101144.81;5022774;28;20044;-83
2023/06/04 09:10:08;;;;;;;62.65;6.75;;;;;;;24.84;44.91;101147.34;5012983;28;20025;-86
2023/06/04 09:12:37;;;;;;;55.38;12.60;;;;;;;25.05;44.40;101151.00;5009064;28;20489;-85
2023/06/04 09:15:03;;;;;;;43.28;14.05;;;;;;;25.00;44.10;101137.03;5010192;28;20045;-85
2023/06/04 09:17:29;;;;;;;29.38;5.55;;;;;;;25.05;44.01;101148.25;5011184;28;20104;-85
2023/06/04 09:19:54;;;;;;;36.08;8.65;;;;;;;25.15;44.19;101133.06;5010778;28;20125;-85
2023/06/04 09:22:31;;;;;;;53.33;8.38;;;;;;;25.36;44.11;101134.78;5013503;28;20026;-83
2023/06/04 09:24:56;;;;;;;10.45;4.63;;;;;;;25.54;42.75;101142.47;5010468;28;20034;-81
2023/06/04 09:27:22;;;;;;;19.73;3.25;;;;;;;25.55;43.18;101142.28;5010851;28;20033;-83
2023/06/04 09:29:56;;;;;;;10.38;3.78;;;;;;;25.60;43.21;101136.97;5020024;28;20486;-83
2023/06/04 09:32:29;;;;;;;10.68;3.75;;;;;;;25.52;42.90;101155.63;5021679;28;20093;-83
2023/06/04 09:35:08;;;;;;;12.90;2.95;;;;;;;25.54;42.06;101140.56;5018122;28;20026;-84
2023/06/04 09:37:34;;;;;;;6.35;2.40;;;;;;;25.59;42.31;101140.81;5011059;28;20029;-82
2023/06/04 09:40:00;;;;;;;7.75;2.88;;;;;;;25.70;42.64;101142.94;5006044;28;20040;-80
2023/06/04 09:42:26;;;;;;;48.92;6.35;;;;;;;25.88;42.81;101145.91;5009515;28;20111;-81
2023/06/04 09:44:51;;;;;;;18.67;3.28;;;;;;;25.98;43.11;101140.81;4997980;28;20033;-85
2023/06/04 09:47:17;;;;;;;32.13;5.68;;;;;;;25.96;43.04;101123.63;4998162;28;20105;-84
2023/06/04 09:49:46;;;;;;;9.98;3.85;;;;;;;26.11;43.09;101145.47;4995842;28;20030;-84
2023/06/04 09:52:12;;;;;;;18.58;3.40;;;;;;;26.04;43.28;101143.78;4992650;28;20442;-87
2023/06/04 09:54:41;;;;;;;16.10;3.55;;;;;;;25.99;43.19;101109.41;4992011;28;20114;-85
2023/06/04 09:57:17;;;;;;;14.15;2.97;;;;;;;25.79;42.00;101103.06;4993259;28;20105;-87
2023/06/04 09:59:48;;;;;;;17.55;5.10;;;;;;;26.04;41.73;101144.63;4990127;28;20502;-84
2023/06/04 10:02:19;;;;;;;13.88;3.50;;;;;;;26.03;40.70;101131.03;4989052;28;20137;-84
2023/06/04 10:04:49;;;;;;;42.63;5.93;;;;;;;26.22;40.35;101141.22;4990570;28;20030;-79
2023/06/04 10:07:15;;;;;;;21.13;4.50;;;;;;;26.14;38.62;101146.94;4989475;28;20053;-80
2023/06/04 10:09:46;;;;;;;19.23;3.70;;;;;;;26.07;40.03;101148.84;4989333;28;20082;-86
2023/06/04 10:12:16;;;;;;;8.87;3.17;;;;;;;26.28;40.09;101141.22;4991491;28;20030;-85
2023/06/04 10:14:56;;;;;;;24.13;3.85;;;;;;;26.35;40.39;101138.47;4993568;28;20942;-84
2023/06/04 10:17:24;;;;;;;15.05;2.80;;;;;;;26.37;38.64;101141.84;4994900;28;20073;-83
2023/06/04 10:19:53;;;;;;;11.45;3.45;;;;;;;26.33;40.70;101148.84;4998755;28;20019;-82
2023/06/04 10:22:20;;;;;;;16.00;3.50;;;;;;;26.04;41.29;101143.78;5000349;28;20100;-77
2023/06/04 10:24:46;;;;;;;17.05;3.55;;;;;;;26.33;39.68;101140.56;5010220;28;20101;-81
2023/06/04 10:27:12;;;;;;;16.52;3.03;;;;;;;26.37;38.42;101144.59;5002298;28;20026;-79
2023/06/04 10:29:39;;;;;;;17.77;2.90;;;;;;;26.47;39.23;101136.75;5001433;28;20084;-83
2023/06/04 10:32:05;;;;;;;17.33;3.13;;;;;;;26.39;40.78;101120.44;4993687;28;20045;-76
2023/06/04 10:34:32;;;;;;;18.50;4.30;;;;;;;26.20;41.57;101113.03;4991256;28;20566;-80
2023/06/04 10:36:58;;;;;;;26.40;3.45;;;;;;;26.13;41.90;101125.94;4992696;28;20034;-79
2023/06/04 10:39:28;;;;;;;24.63;3.38;;;;;;;26.11;41.66;101139.09;4996849;28;20018;-81
2023/06/04 10:42:12;;;;;;;9.32;2.42;;;;;;;25.89;42.54;101131.06;5011548;28;20113;-80
2023/06/04 10:44:54;;;;;;;10.70;3.05;;;;;;;25.78;43.15;101111.53;5012080;28;20117;-79
2023/06/04 10:47:23;;;;;;;12.38;3.35;;;;;;;25.86;42.57;101125.97;5012252;28;20033;-81
2023/06/04 10:49:51;;;;;;;15.68;3.50;;;;;;;26.15;42.32;101135.72;5011662;28;20068;-81
2023/06/04 10:52:17;;;;;;;11.05;3.50;;;;;;;26.21;41.82;101125.75;5025782;28;20041;-81
2023/06/04 10:54:44;;;;;;;20.45;4.03;;;;;;;26.35;41.53;101135.72;5012127;28;20037;-79
2023/06/04 10:57:15;;;;;;;22.40;3.50;;;;;;;26.24;40.96;101131.69;5011929;28;20030;-80
2023/06/04 10:59:41;;;;;;;19.98;3.33;;;;;;;26.17;41.86;101132.78;5011528;28;20079;-80
2023/06/04 11:02:07;;;;;;;46.30;4.15;;;;;;;25.94;41.37;101142.28;5012252;28;20030;-80
2023/06/04 11:04:33;;;;;;;16.95;3.20;;;;;;;25.88;41.38;101114.72;5011531;28;20026;-80
2023/06/04 11:07:09;;;;;;;16.45;2.55;;;;;;;25.96;41.39;101153.94;5012086;28;20478;-80
2023/06/04 11:09:35;;;;;;;17.08;3.42;;;;;;;25.92;42.19;101127.88;5013850;28;20415;-79
2023/06/04 11:12:02;;;;;;;20.25;3.83;;;;;;;25.95;42.68;101130.22;5021402;28;20022;-80
2023/06/04 11:14:27;;;;;;;18.65;3.63;;;;;;;25.94;42.99;101123.00;5027123;28;20038;-80
2023/06/04 11:16:53;;;;;;;22.83;3.80;;;;;;;25.63;42.82;101128.28;5012858;28;20029;-81
2023/06/04 11:19:18;;;;;;;14.48;3.72;;;;;;;25.36;43.52;101134.78;5012430;28;20038;-79